Portada
METAR-TAF:

METAR-TAF

Aeroports :

Plataforma petroliera

K14-fa-1c, Països Baixos

latitud: 53-16-10N, longitud: 3-37-40E, altitud: 28 m

Observació

L'informe es va fer fa 14 minuts, a les 19:55 UTC
Vent 13 kt del Est
Temperatura 22°C
Humitat 73%
Pressió 1019 hPa
Visibilitat 10 km o més

METAR: EHKV 241955Z AUTO 10013KT 9999 NSC 22/17 Q1019 W///H///

Hora: 22:09 (20:09 UTC)


TAF: manca

Observacions i pronòstics meteorològics de més de 4000 aeroports (METAR i TAF).

Les estacions disponibles són els punts grocs i vermells al mapa.

Posi el ratolí al punt desitjat per veure el nom de l'estació.

Feu clic per veure les observacions i els pronòstics meteorològics.

Per canviar el mapa: feu clic els botons verds amb una creu de color negre per apropar; al botó verd amb un guió per allunyar la imatge; o en les fletxes verdes per a mapes adjacents.


METAR-TAF: